Hunter, Kansas
Current Conditions -  °F | °C
As of 4:53 AM on Monday 20 Oct 2014 (Local Time) from KRSL Reporting Station
Clear Clear  
Wind Chill: 44°   Ceiling: Unl
Heat Index: 47°   Visibility: 9mi
Dew Point: 46°   Wind: 7mph
Humidity: 97%   Direction: 330°NNW
Pressure: 30.02"   Gusts: NA
Location:  39.23°N, 98.4°W
Report Text: KRSL 200953Z AUTO 33006KT 9SM CLR 08/08 A3002 RMK AO2 SLP161 T00830078
Loading
Personal Weather Stations






























Interactive Weather Map
Tropical Storm Tracking
New forecast layout! Learn more

10-Day Weather Forecast

Advertisements
Track Severe Weather on mobile